sensor_id;sensor_type;location;lat;lon;timestamp;temperature;humidity
5086;DHT22;4715;51.660;7.082;2022-10-31T00:01:16;16.20;99.90
5086;DHT22;4715;51.660;7.082;2022-10-31T00:03:38;16.20;99.90
5086;DHT22;4715;51.660;7.082;2022-10-31T00:06:00;16.20;99.90
5086;DHT22;4715;51.660;7.082;2022-10-31T00:08:22;16.20;99.90
5086;DHT22;4715;51.660;7.082;2022-10-31T00:10:45;16.10;99.90
5086;DHT22;4715;51.660;7.082;2022-10-31T00:13:08;16.10;99.90
5086;DHT22;4715;51.660;7.082;2022-10-31T00:15:32;16.10;99.90
5086;DHT22;4715;51.660;7.082;2022-10-31T00:17:54;16.10;99.90
5086;DHT22;4715;51.660;7.082;2022-10-31T00:20:16;16.10;99.90
5086;DHT22;4715;51.660;7.082;2022-10-31T00:22:37;16.00;99.90
5086;DHT22;4715;51.660;7.082;2022-10-31T00:24:59;16.00;99.90
5086;DHT22;4715;51.660;7.082;2022-10-31T00:27:22;16.00;99.90
5086;DHT22;4715;51.660;7.082;2022-10-31T00:29:44;16.00;99.90
5086;DHT22;4715;51.660;7.082;2022-10-31T00:32:06;16.10;99.90
5086;DHT22;4715;51.660;7.082;2022-10-31T00:34:28;16.10;99.90
5086;DHT22;4715;51.660;7.082;2022-10-31T00:36:50;16.10;99.90
5086;DHT22;4715;51.660;7.082;2022-10-31T00:39:11;16.10;99.90
5086;DHT22;4715;51.660;7.082;2022-10-31T00:41:33;16.10;99.90
5086;DHT22;4715;51.660;7.082;2022-10-31T00:43:57;16.10;99.90
5086;DHT22;4715;51.660;7.082;2022-10-31T00:46:18;16.10;99.90
5086;DHT22;4715;51.660;7.082;2022-10-31T00:48:40;16.00;99.90
5086;DHT22;4715;51.660;7.082;2022-10-31T00:51:03;16.00;99.90
5086;DHT22;4715;51.660;7.082;2022-10-31T00:53:25;16.00;99.90
5086;DHT22;4715;51.660;7.082;2022-10-31T00:55:47;16.00;99.90
5086;DHT22;4715;51.660;7.082;2022-10-31T00:58:09;16.00;99.90
5086;DHT22;4715;51.660;7.082;2022-10-31T01:00:32;16.00;99.90
5086;DHT22;4715;51.660;7.082;2022-10-31T01:02:54;16.00;99.90
5086;DHT22;4715;51.660;7.082;2022-10-31T01:05:16;16.00;99.90
5086;DHT22;4715;51.660;7.082;2022-10-31T01:07:39;15.90;99.90
5086;DHT22;4715;51.660;7.082;2022-10-31T01:10:03;15.90;99.90
5086;DHT22;4715;51.660;7.082;2022-10-31T01:12:24;15.90;99.90
5086;DHT22;4715;51.660;7.082;2022-10-31T01:14:46;15.90;99.90
5086;DHT22;4715;51.660;7.082;2022-10-31T01:17:10;15.80;99.90
5086;DHT22;4715;51.660;7.082;2022-10-31T01:19:32;15.80;99.90
5086;DHT22;4715;51.660;7.082;2022-10-31T01:21:54;15.80;99.90
5086;DHT22;4715;51.660;7.082;2022-10-31T01:24:16;15.80;99.90
5086;DHT22;4715;51.660;7.082;2022-10-31T01:26:37;15.80;99.90
5086;DHT22;4715;51.660;7.082;2022-10-31T01:29:01;15.80;99.90
5086;DHT22;4715;51.660;7.082;2022-10-31T01:31:27;15.80;99.90
5086;DHT22;4715;51.660;7.082;2022-10-31T01:33:50;15.80;99.90
5086;DHT22;4715;51.660;7.082;2022-10-31T01:36:15;15.80;99.90
5086;DHT22;4715;51.660;7.082;2022-10-31T01:38:37;15.80;99.90
5086;DHT22;4715;51.660;7.082;2022-10-31T01:40:59;15.80;99.90
5086;DHT22;4715;51.660;7.082;2022-10-31T01:43:21;15.70;99.90
5086;DHT22;4715;51.660;7.082;2022-10-31T01:45:46;15.70;99.90
5086;DHT22;4715;51.660;7.082;2022-10-31T01:48:13;15.70;99.90
5086;DHT22;4715;51.660;7.082;2022-10-31T01:50:38;15.70;99.90
5086;DHT22;4715;51.660;7.082;2022-10-31T01:53:00;15.70;99.90
5086;DHT22;4715;51.660;7.082;2022-10-31T01:55:26;15.70;99.90
5086;DHT22;4715;51.660;7.082;2022-10-31T01:57:51;15.70;99.90
5086;DHT22;4715;51.660;7.082;2022-10-31T02:00:15;15.60;99.90
5086;DHT22;4715;51.660;7.082;2022-10-31T02:02:37;15.60;99.90
5086;DHT22;4715;51.660;7.082;2022-10-31T02:05:01;15.60;99.90
5086;DHT22;4715;51.660;7.082;2022-10-31T02:07:27;15.60;99.90
5086;DHT22;4715;51.660;7.082;2022-10-31T02:09:51;15.60;99.90
5086;DHT22;4715;51.660;7.082;2022-10-31T02:12:15;15.60;99.90
5086;DHT22;4715;51.660;7.082;2022-10-31T02:14:38;15.60;99.90
5086;DHT22;4715;51.660;7.082;2022-10-31T02:17:00;15.50;99.90
5086;DHT22;4715;51.660;7.082;2022-10-31T02:19:30;15.60;99.90
5086;DHT22;4715;51.660;7.082;2022-10-31T02:21:57;15.60;99.90
5086;DHT22;4715;51.660;7.082;2022-10-31T02:24:45;15.50;99.90
5086;DHT22;4715;51.660;7.082;2022-10-31T02:30:20;15.50;99.90
5086;DHT22;4715;51.660;7.082;2022-10-31T02:32:51;15.40;99.90
5086;DHT22;4715;51.660;7.082;2022-10-31T02:35:27;15.40;99.90
5086;DHT22;4715;51.660;7.082;2022-10-31T02:37:57;15.30;99.90
5086;DHT22;4715;51.660;7.082;2022-10-31T02:40:23;15.30;99.90
5086;DHT22;4715;51.660;7.082;2022-10-31T02:42:51;15.20;99.90
5086;DHT22;4715;51.660;7.082;2022-10-31T02:45:21;15.20;99.90
5086;DHT22;4715;51.660;7.082;2022-10-31T02:47:49;15.10;99.90
5086;DHT22;4715;51.660;7.082;2022-10-31T02:50:14;15.10;99.90
5086;DHT22;4715;51.660;7.082;2022-10-31T02:52:38;15.00;99.90
5086;DHT22;4715;51.660;7.082;2022-10-31T02:55:09;15.00;99.90
5086;DHT22;4715;51.660;7.082;2022-10-31T02:57:34;15.00;99.90
5086;DHT22;4715;51.660;7.082;2022-10-31T03:00:00;15.00;99.90
5086;DHT22;4715;51.660;7.082;2022-10-31T03:02:39;15.00;99.90
5086;DHT22;4715;51.660;7.082;2022-10-31T03:05:14;15.00;99.90
5086;DHT22;4715;51.660;7.082;2022-10-31T03:07:49;14.90;99.90
5086;DHT22;4715;51.660;7.082;2022-10-31T03:10:18;14.90;99.90
5086;DHT22;4715;51.660;7.082;2022-10-31T03:12:52;14.90;99.90
5086;DHT22;4715;51.660;7.082;2022-10-31T03:15:21;14.80;99.90
5086;DHT22;4715;51.660;7.082;2022-10-31T03:17:53;14.80;99.90
5086;DHT22;4715;51.660;7.082;2022-10-31T03:20:19;14.70;99.90
5086;DHT22;4715;51.660;7.082;2022-10-31T03:22:44;14.70;99.90
5086;DHT22;4715;51.660;7.082;2022-10-31T03:25:07;14.70;99.90
5086;DHT22;4715;51.660;7.082;2022-10-31T03:27:33;14.70;99.90
5086;DHT22;4715;51.660;7.082;2022-10-31T03:29:58;14.60;99.90
5086;DHT22;4715;51.660;7.082;2022-10-31T03:32:24;14.60;99.90
5086;DHT22;4715;51.660;7.082;2022-10-31T03:34:47;14.60;99.90
5086;DHT22;4715;51.660;7.082;2022-10-31T03:37:16;14.50;99.90
5086;DHT22;4715;51.660;7.082;2022-10-31T03:39:41;14.50;99.90
5086;DHT22;4715;51.660;7.082;2022-10-31T03:42:05;14.50;99.90
5086;DHT22;4715;51.660;7.082;2022-10-31T03:44:29;14.50;99.90
5086;DHT22;4715;51.660;7.082;2022-10-31T03:46:53;14.50;99.90
5086;DHT22;4715;51.660;7.082;2022-10-31T03:49:15;14.50;99.90
5086;DHT22;4715;51.660;7.082;2022-10-31T03:51:42;14.40;99.90
5086;DHT22;4715;51.660;7.082;2022-10-31T03:54:20;14.40;99.90
5086;DHT22;4715;51.660;7.082;2022-10-31T03:56:48;14.40;99.90
5086;DHT22;4715;51.660;7.082;2022-10-31T03:59:15;14.40;99.90
5086;DHT22;4715;51.660;7.082;2022-10-31T04:01:42;14.40;99.90
5086;DHT22;4715;51.660;7.082;2022-10-31T04:04:05;14.30;99.90
5086;DHT22;4715;51.660;7.082;2022-10-31T04:06:28;14.30;99.90
5086;DHT22;4715;51.660;7.082;2022-10-31T04:08:54;14.30;99.90
5086;DHT22;4715;51.660;7.082;2022-10-31T04:11:23;14.30;99.90
5086;DHT22;4715;51.660;7.082;2022-10-31T04:13:47;14.30;99.90
5086;DHT22;4715;51.660;7.082;2022-10-31T04:16:10;14.30;99.90
5086;DHT22;4715;51.660;7.082;2022-10-31T04:18:32;14.30;99.90
5086;DHT22;4715;51.660;7.082;2022-10-31T04:21:00;14.30;99.90
5086;DHT22;4715;51.660;7.082;2022-10-31T04:23:24;14.20;99.90
5086;DHT22;4715;51.660;7.082;2022-10-31T04:25:46;14.20;99.90
5086;DHT22;4715;51.660;7.082;2022-10-31T04:28:09;14.20;99.90
5086;DHT22;4715;51.660;7.082;2022-10-31T04:30:31;14.20;99.90
5086;DHT22;4715;51.660;7.082;2022-10-31T04:32:53;14.10;99.90
5086;DHT22;4715;51.660;7.082;2022-10-31T04:35:15;14.10;99.90
5086;DHT22;4715;51.660;7.082;2022-10-31T04:37:37;14.20;99.90
5086;DHT22;4715;51.660;7.082;2022-10-31T04:39:59;14.20;99.90
5086;DHT22;4715;51.660;7.082;2022-10-31T04:42:21;14.20;99.90
5086;DHT22;4715;51.660;7.082;2022-10-31T04:44:44;14.20;99.90
5086;DHT22;4715;51.660;7.082;2022-10-31T04:47:06;14.20;99.90
5086;DHT22;4715;51.660;7.082;2022-10-31T04:49:28;14.20;99.90
5086;DHT22;4715;51.660;7.082;2022-10-31T04:51:49;14.20;99.90
5086;DHT22;4715;51.660;7.082;2022-10-31T04:54:11;14.20;99.90
5086;DHT22;4715;51.660;7.082;2022-10-31T04:56:33;14.20;99.90
5086;DHT22;4715;51.660;7.082;2022-10-31T04:58:55;14.20;99.90
5086;DHT22;4715;51.660;7.082;2022-10-31T05:01:18;14.20;99.90
5086;DHT22;4715;51.660;7.082;2022-10-31T05:03:40;14.20;99.90
5086;DHT22;4715;51.660;7.082;2022-10-31T05:06:02;14.20;99.90
5086;DHT22;4715;51.660;7.082;2022-10-31T05:08:24;14.20;99.90
5086;DHT22;4715;51.660;7.082;2022-10-31T05:10:45;14.20;99.90
5086;DHT22;4715;51.660;7.082;2022-10-31T05:13:08;14.20;99.90
5086;DHT22;4715;51.660;7.082;2022-10-31T05:15:30;14.20;99.90
5086;DHT22;4715;51.660;7.082;2022-10-31T05:17:56;14.20;99.90
5086;DHT22;4715;51.660;7.082;2022-10-31T05:20:20;14.20;99.90
5086;DHT22;4715;51.660;7.082;2022-10-31T05:22:43;14.20;99.90
5086;DHT22;4715;51.660;7.082;2022-10-31T05:25:05;14.20;99.90
5086;DHT22;4715;51.660;7.082;2022-10-31T05:27:28;14.20;99.90
5086;DHT22;4715;51.660;7.082;2022-10-31T05:29:49;14.20;99.90
5086;DHT22;4715;51.660;7.082;2022-10-31T05:32:13;14.20;99.90
5086;DHT22;4715;51.660;7.082;2022-10-31T05:34:36;14.20;99.90
5086;DHT22;4715;51.660;7.082;2022-10-31T05:36:58;14.20;99.90
5086;DHT22;4715;51.660;7.082;2022-10-31T05:39:20;14.20;99.90
5086;DHT22;4715;51.660;7.082;2022-10-31T05:41:42;14.20;99.90
5086;DHT22;4715;51.660;7.082;2022-10-31T05:44:04;14.10;99.90
5086;DHT22;4715;51.660;7.082;2022-10-31T05:46:26;14.10;99.90
5086;DHT22;4715;51.660;7.082;2022-10-31T05:48:48;14.00;99.90
5086;DHT22;4715;51.660;7.082;2022-10-31T05:51:12;14.00;99.90
5086;DHT22;4715;51.660;7.082;2022-10-31T05:53:34;14.00;99.90
5086;DHT22;4715;51.660;7.082;2022-10-31T05:55:56;14.00;99.90
5086;DHT22;4715;51.660;7.082;2022-10-31T05:58:17;14.00;99.90
5086;DHT22;4715;51.660;7.082;2022-10-31T06:00:39;14.00;99.90
5086;DHT22;4715;51.660;7.082;2022-10-31T06:03:03;14.00;99.90
5086;DHT22;4715;51.660;7.082;2022-10-31T06:05:25;14.00;99.90
5086;DHT22;4715;51.660;7.082;2022-10-31T06:07:48;14.00;99.90
5086;DHT22;4715;51.660;7.082;2022-10-31T06:10:10;14.00;99.90
5086;DHT22;4715;51.660;7.082;2022-10-31T06:12:32;14.00;99.90
5086;DHT22;4715;51.660;7.082;2022-10-31T06:14:57;14.00;99.90
5086;DHT22;4715;51.660;7.082;2022-10-31T06:17:19;14.00;99.90
5086;DHT22;4715;51.660;7.082;2022-10-31T06:19:43;14.00;99.90
5086;DHT22;4715;51.660;7.082;2022-10-31T06:22:05;14.00;99.90
5086;DHT22;4715;51.660;7.082;2022-10-31T06:24:28;14.00;99.90
5086;DHT22;4715;51.660;7.082;2022-10-31T06:26:50;13.90;99.90
5086;DHT22;4715;51.660;7.082;2022-10-31T06:29:11;13.90;99.90
5086;DHT22;4715;51.660;7.082;2022-10-31T06:31:33;13.90;99.90
5086;DHT22;4715;51.660;7.082;2022-10-31T06:33:55;13.80;99.90
5086;DHT22;4715;51.660;7.082;2022-10-31T06:36:17;13.80;99.90
5086;DHT22;4715;51.660;7.082;2022-10-31T06:38:39;13.80;99.90
5086;DHT22;4715;51.660;7.082;2022-10-31T06:41:03;13.80;99.90
5086;DHT22;4715;51.660;7.082;2022-10-31T06:43:26;13.80;99.90
5086;DHT22;4715;51.660;7.082;2022-10-31T06:45:47;13.80;99.90
5086;DHT22;4715;51.660;7.082;2022-10-31T06:48:09;13.80;99.90
5086;DHT22;4715;51.660;7.082;2022-10-31T06:50:31;13.80;99.90
5086;DHT22;4715;51.660;7.082;2022-10-31T06:52:54;13.80;99.90
5086;DHT22;4715;51.660;7.082;2022-10-31T06:55:16;13.80;99.90
5086;DHT22;4715;51.660;7.082;2022-10-31T06:57:39;13.80;99.90
5086;DHT22;4715;51.660;7.082;2022-10-31T07:00:01;13.80;99.90
5086;DHT22;4715;51.660;7.082;2022-10-31T07:02:23;13.80;99.90
5086;DHT22;4715;51.660;7.082;2022-10-31T07:04:45;13.80;99.90
5086;DHT22;4715;51.660;7.082;2022-10-31T07:07:07;13.80;99.90
5086;DHT22;4715;51.660;7.082;2022-10-31T07:09:29;13.80;99.90
5086;DHT22;4715;51.660;7.082;2022-10-31T07:11:52;13.90;99.90
5086;DHT22;4715;51.660;7.082;2022-10-31T07:14:15;13.90;99.90
5086;DHT22;4715;51.660;7.082;2022-10-31T07:16:37;13.90;99.90
5086;DHT22;4715;51.660;7.082;2022-10-31T07:18:59;13.90;99.90
5086;DHT22;4715;51.660;7.082;2022-10-31T07:21:21;14.00;99.90
5086;DHT22;4715;51.660;7.082;2022-10-31T07:23:43;14.00;99.90
5086;DHT22;4715;51.660;7.082;2022-10-31T07:26:05;14.00;99.90
5086;DHT22;4715;51.660;7.082;2022-10-31T07:28:27;14.10;99.90
5086;DHT22;4715;51.660;7.082;2022-10-31T07:30:51;14.10;99.90
5086;DHT22;4715;51.660;7.082;2022-10-31T07:33:13;14.20;99.90
5086;DHT22;4715;51.660;7.082;2022-10-31T07:35:35;14.20;99.90
5086;DHT22;4715;51.660;7.082;2022-10-31T07:37:57;14.20;99.90
5086;DHT22;4715;51.660;7.082;2022-10-31T07:40:20;14.30;99.90
5086;DHT22;4715;51.660;7.082;2022-10-31T07:42:46;14.30;99.90
5086;DHT22;4715;51.660;7.082;2022-10-31T07:45:10;14.30;99.90
5086;DHT22;4715;51.660;7.082;2022-10-31T07:47:39;14.40;99.90
5086;DHT22;4715;51.660;7.082;2022-10-31T07:50:00;14.50;99.90
5086;DHT22;4715;51.660;7.082;2022-10-31T07:52:22;14.50;99.90
5086;DHT22;4715;51.660;7.082;2022-10-31T07:54:45;14.50;99.90
5086;DHT22;4715;51.660;7.082;2022-10-31T07:57:07;14.60;99.90
5086;DHT22;4715;51.660;7.082;2022-10-31T07:59:29;14.60;99.90
5086;DHT22;4715;51.660;7.082;2022-10-31T08:01:51;14.60;99.90
5086;DHT22;4715;51.660;7.082;2022-10-31T08:04:14;14.70;99.90
5086;DHT22;4715;51.660;7.082;2022-10-31T08:06:36;14.70;99.90
5086;DHT22;4715;51.660;7.082;2022-10-31T08:08:58;14.80;99.90
5086;DHT22;4715;51.660;7.082;2022-10-31T08:11:19;14.80;99.90
5086;DHT22;4715;51.660;7.082;2022-10-31T08:13:41;14.80;99.90
5086;DHT22;4715;51.660;7.082;2022-10-31T08:16:05;14.90;99.90
5086;DHT22;4715;51.660;7.082;2022-10-31T08:18:27;14.90;99.90
5086;DHT22;4715;51.660;7.082;2022-10-31T08:20:51;15.00;99.90
5086;DHT22;4715;51.660;7.082;2022-10-31T08:23:12;15.00;99.90
5086;DHT22;4715;51.660;7.082;2022-10-31T08:25:35;15.00;99.90
5086;DHT22;4715;51.660;7.082;2022-10-31T08:27:57;15.00;99.90
5086;DHT22;4715;51.660;7.082;2022-10-31T08:30:19;15.10;99.90
5086;DHT22;4715;51.660;7.082;2022-10-31T08:32:41;15.10;99.90
5086;DHT22;4715;51.660;7.082;2022-10-31T08:35:04;15.20;99.90
5086;DHT22;4715;51.660;7.082;2022-10-31T08:37:27;15.20;99.90
5086;DHT22;4715;51.660;7.082;2022-10-31T08:39:49;15.30;99.90
5086;DHT22;4715;51.660;7.082;2022-10-31T08:42:12;15.30;99.90
5086;DHT22;4715;51.660;7.082;2022-10-31T08:44:34;15.40;99.90
5086;DHT22;4715;51.660;7.082;2022-10-31T08:46:56;15.50;99.90
5086;DHT22;4715;51.660;7.082;2022-10-31T08:49:17;15.50;99.90
5086;DHT22;4715;51.660;7.082;2022-10-31T08:51:39;15.60;99.90
5086;DHT22;4715;51.660;7.082;2022-10-31T08:54:03;15.60;99.90
5086;DHT22;4715;51.660;7.082;2022-10-31T08:56:25;15.70;99.90
5086;DHT22;4715;51.660;7.082;2022-10-31T08:58:47;15.60;99.90
5086;DHT22;4715;51.660;7.082;2022-10-31T09:01:09;15.70;99.90
5086;DHT22;4715;51.660;7.082;2022-10-31T09:03:30;15.70;99.90
5086;DHT22;4715;51.660;7.082;2022-10-31T09:05:56;15.80;99.90
5086;DHT22;4715;51.660;7.082;2022-10-31T09:08:19;15.80;99.90
5086;DHT22;4715;51.660;7.082;2022-10-31T09:10:42;15.90;99.90
5086;DHT22;4715;51.660;7.082;2022-10-31T09:13:05;15.90;99.90
5086;DHT22;4715;51.660;7.082;2022-10-31T09:15:28;16.00;99.90
5086;DHT22;4715;51.660;7.082;2022-10-31T09:17:50;16.00;99.90
5086;DHT22;4715;51.660;7.082;2022-10-31T09:20:12;16.10;99.90
5086;DHT22;4715;51.660;7.082;2022-10-31T09:22:34;16.10;99.90
5086;DHT22;4715;51.660;7.082;2022-10-31T09:24:55;16.10;99.90
5086;DHT22;4715;51.660;7.082;2022-10-31T09:27:19;16.20;99.90
5086;DHT22;4715;51.660;7.082;2022-10-31T09:29:41;16.20;99.90
5086;DHT22;4715;51.660;7.082;2022-10-31T09:32:03;16.20;99.90
5086;DHT22;4715;51.660;7.082;2022-10-31T09:34:25;16.30;99.90
5086;DHT22;4715;51.660;7.082;2022-10-31T09:36:47;16.30;99.90
5086;DHT22;4715;51.660;7.082;2022-10-31T09:39:08;16.40;99.90
5086;DHT22;4715;51.660;7.082;2022-10-31T09:41:39;16.60;99.90
5086;DHT22;4715;51.660;7.082;2022-10-31T09:44:08;16.70;99.90
5086;DHT22;4715;51.660;7.082;2022-10-31T09:46:50;16.90;99.90
5086;DHT22;4715;51.660;7.082;2022-10-31T09:49:30;17.10;99.90
5086;DHT22;4715;51.660;7.082;2022-10-31T09:51:57;17.20;99.90
5086;DHT22;4715;51.660;7.082;2022-10-31T09:54:25;17.30;99.90
5086;DHT22;4715;51.660;7.082;2022-10-31T09:56:48;17.30;99.90
5086;DHT22;4715;51.660;7.082;2022-10-31T09:59:17;17.30;99.90
5086;DHT22;4715;51.660;7.082;2022-10-31T10:01:45;17.30;99.90
5086;DHT22;4715;51.660;7.082;2022-10-31T10:04:20;17.30;99.90
5086;DHT22;4715;51.660;7.082;2022-10-31T10:06:50;17.40;99.90
5086;DHT22;4715;51.660;7.082;2022-10-31T10:09:12;17.30;99.90
5086;DHT22;4715;51.660;7.082;2022-10-31T10:11:48;17.40;99.90
5086;DHT22;4715;51.660;7.082;2022-10-31T10:14:29;17.40;99.90
5086;DHT22;4715;51.660;7.082;2022-10-31T10:17:05;17.40;99.90
5086;DHT22;4715;51.660;7.082;2022-10-31T10:19:44;17.40;99.90
5086;DHT22;4715;51.660;7.082;2022-10-31T10:22:11;17.40;99.90
5086;DHT22;4715;51.660;7.082;2022-10-31T10:24:49;17.30;99.90
5086;DHT22;4715;51.660;7.082;2022-10-31T10:27:20;17.30;99.90
5086;DHT22;4715;51.660;7.082;2022-10-31T10:29:50;17.30;99.90
5086;DHT22;4715;51.660;7.082;2022-10-31T10:32:20;17.30;99.90
5086;DHT22;4715;51.660;7.082;2022-10-31T10:34:47;17.40;99.90
5086;DHT22;4715;51.660;7.082;2022-10-31T10:37:22;17.40;99.90
5086;DHT22;4715;51.660;7.082;2022-10-31T10:39:48;17.60;99.90
5086;DHT22;4715;51.660;7.082;2022-10-31T10:42:13;17.80;99.90
5086;DHT22;4715;51.660;7.082;2022-10-31T10:44:54;17.90;99.90
5086;DHT22;4715;51.660;7.082;2022-10-31T10:47:41;18.10;99.90
5086;DHT22;4715;51.660;7.082;2022-10-31T10:50:07;18.20;99.90
5086;DHT22;4715;51.660;7.082;2022-10-31T10:52:36;18.40;99.90
5086;DHT22;4715;51.660;7.082;2022-10-31T10:55:06;18.50;99.90
5086;DHT22;4715;51.660;7.082;2022-10-31T10:57:43;18.70;99.90
5086;DHT22;4715;51.660;7.082;2022-10-31T11:00:21;18.70;99.90
5086;DHT22;4715;51.660;7.082;2022-10-31T11:02:43;18.80;99.90
5086;DHT22;4715;51.660;7.082;2022-10-31T11:05:15;18.70;99.90
5086;DHT22;4715;51.660;7.082;2022-10-31T11:07:39;18.70;99.90
5086;DHT22;4715;51.660;7.082;2022-10-31T11:10:05;18.70;99.90
5086;DHT22;4715;51.660;7.082;2022-10-31T11:12:35;18.70;99.90
5086;DHT22;4715;51.660;7.082;2022-10-31T11:14:59;18.70;99.90
5086;DHT22;4715;51.660;7.082;2022-10-31T11:17:29;18.70;99.90
5086;DHT22;4715;51.660;7.082;2022-10-31T11:20:00;18.60;99.90
5086;DHT22;4715;51.660;7.082;2022-10-31T11:22:22;18.60;99.90
5086;DHT22;4715;51.660;7.082;2022-10-31T11:24:44;18.50;99.90
5086;DHT22;4715;51.660;7.082;2022-10-31T11:27:15;18.50;99.90
5086;DHT22;4715;51.660;7.082;2022-10-31T11:29:37;18.50;99.90
5086;DHT22;4715;51.660;7.082;2022-10-31T11:32:00;18.50;99.90
5086;DHT22;4715;51.660;7.082;2022-10-31T11:34:34;18.60;99.90
5086;DHT22;4715;51.660;7.082;2022-10-31T11:37:03;18.70;99.90
5086;DHT22;4715;51.660;7.082;2022-10-31T11:39:26;18.80;99.90
5086;DHT22;4715;51.660;7.082;2022-10-31T11:41:49;18.90;99.90
5086;DHT22;4715;51.660;7.082;2022-10-31T11:44:13;19.00;99.90
5086;DHT22;4715;51.660;7.082;2022-10-31T11:46:39;19.00;99.90
5086;DHT22;4715;51.660;7.082;2022-10-31T11:49:01;19.00;99.90
5086;DHT22;4715;51.660;7.082;2022-10-31T11:51:31;19.00;99.90
5086;DHT22;4715;51.660;7.082;2022-10-31T11:54:15;18.90;99.90
5086;DHT22;4715;51.660;7.082;2022-10-31T11:56:41;18.90;99.90
5086;DHT22;4715;51.660;7.082;2022-10-31T11:59:04;18.90;99.90
5086;DHT22;4715;51.660;7.082;2022-10-31T12:01:28;18.90;99.90
5086;DHT22;4715;51.660;7.082;2022-10-31T12:03:57;18.90;99.90
5086;DHT22;4715;51.660;7.082;2022-10-31T12:06:24;19.00;99.90
5086;DHT22;4715;51.660;7.082;2022-10-31T12:08:51;19.10;99.90
5086;DHT22;4715;51.660;7.082;2022-10-31T12:11:25;19.10;99.90
5086;DHT22;4715;51.660;7.082;2022-10-31T12:14:01;19.20;99.90
5086;DHT22;4715;51.660;7.082;2022-10-31T12:16:30;19.20;99.90
5086;DHT22;4715;51.660;7.082;2022-10-31T12:18:58;19.20;99.90
5086;DHT22;4715;51.660;7.082;2022-10-31T12:21:30;19.20;99.90
5086;DHT22;4715;51.660;7.082;2022-10-31T12:24:06;19.20;99.90
5086;DHT22;4715;51.660;7.082;2022-10-31T12:26:34;19.20;99.90
5086;DHT22;4715;51.660;7.082;2022-10-31T12:29:10;19.20;99.90
5086;DHT22;4715;51.660;7.082;2022-10-31T12:34:45;19.20;99.90
5086;DHT22;4715;51.660;7.082;2022-10-31T12:37:20;19.20;99.90
5086;DHT22;4715;51.660;7.082;2022-10-31T12:39:51;19.10;99.90
5086;DHT22;4715;51.660;7.082;2022-10-31T12:42:35;19.10;99.90
5086;DHT22;4715;51.660;7.082;2022-10-31T12:45:20;19.10;99.90
5086;DHT22;4715;51.660;7.082;2022-10-31T12:47:56;19.00;99.90
5086;DHT22;4715;51.660;7.082;2022-10-31T12:50:28;19.00;99.90
5086;DHT22;4715;51.660;7.082;2022-10-31T12:53:00;19.00;99.90
5086;DHT22;4715;51.660;7.082;2022-10-31T12:55:40;19.00;99.90
5086;DHT22;4715;51.660;7.082;2022-10-31T12:58:07;19.00;99.90
5086;DHT22;4715;51.660;7.082;2022-10-31T13:00:32;19.00;99.90
5086;DHT22;4715;51.660;7.082;2022-10-31T13:02:59;19.10;99.90
5086;DHT22;4715;51.660;7.082;2022-10-31T13:05:27;19.10;99.90
5086;DHT22;4715;51.660;7.082;2022-10-31T13:07:58;19.20;99.90
5086;DHT22;4715;51.660;7.082;2022-10-31T13:10:25;19.30;99.90
5086;DHT22;4715;51.660;7.082;2022-10-31T13:12:53;19.40;99.90
5086;DHT22;4715;51.660;7.082;2022-10-31T13:15:18;19.50;99.90
5086;DHT22;4715;51.660;7.082;2022-10-31T13:17:44;19.50;99.90
5086;DHT22;4715;51.660;7.082;2022-10-31T13:20:18;19.60;99.90
5086;DHT22;4715;51.660;7.082;2022-10-31T13:22:44;19.60;99.90
5086;DHT22;4715;51.660;7.082;2022-10-31T13:25:13;19.60;99.90
5086;DHT22;4715;51.660;7.082;2022-10-31T13:27:43;19.70;99.90
5086;DHT22;4715;51.660;7.082;2022-10-31T13:30:14;19.70;99.90
5086;DHT22;4715;51.660;7.082;2022-10-31T13:32:40;19.80;99.90
5086;DHT22;4715;51.660;7.082;2022-10-31T13:35:05;19.90;99.90
5086;DHT22;4715;51.660;7.082;2022-10-31T13:37:39;20.00;99.90
5086;DHT22;4715;51.660;7.082;2022-10-31T13:40:11;20.20;99.90
5086;DHT22;4715;51.660;7.082;2022-10-31T13:42:45;20.20;99.90
5086;DHT22;4715;51.660;7.082;2022-10-31T13:45:15;20.20;99.90
5086;DHT22;4715;51.660;7.082;2022-10-31T13:47:37;20.10;99.90
5086;DHT22;4715;51.660;7.082;2022-10-31T13:50:24;20.00;99.90
5086;DHT22;4715;51.660;7.082;2022-10-31T13:52:46;19.90;99.90
5086;DHT22;4715;51.660;7.082;2022-10-31T13:55:34;19.80;99.90
5086;DHT22;4715;51.660;7.082;2022-10-31T13:57:56;19.70;99.90
5086;DHT22;4715;51.660;7.082;2022-10-31T14:00:24;19.70;99.90
5086;DHT22;4715;51.660;7.082;2022-10-31T14:02:49;19.60;99.90
5086;DHT22;4715;51.660;7.082;2022-10-31T14:05:21;19.60;99.90
5086;DHT22;4715;51.660;7.082;2022-10-31T14:07:45;19.60;99.90
5086;DHT22;4715;51.660;7.082;2022-10-31T14:10:21;19.60;99.90
5086;DHT22;4715;51.660;7.082;2022-10-31T14:12:50;19.60;99.90
5086;DHT22;4715;51.660;7.082;2022-10-31T14:15:17;19.60;99.90
5086;DHT22;4715;51.660;7.082;2022-10-31T14:17:46;19.60;99.90
5086;DHT22;4715;51.660;7.082;2022-10-31T14:20:32;19.60;99.90
5086;DHT22;4715;51.660;7.082;2022-10-31T14:22:55;19.60;99.90
5086;DHT22;4715;51.660;7.082;2022-10-31T14:25:29;19.60;99.90
5086;DHT22;4715;51.660;7.082;2022-10-31T14:27:56;19.60;99.90
5086;DHT22;4715;51.660;7.082;2022-10-31T14:30:20;19.50;99.90
5086;DHT22;4715;51.660;7.082;2022-10-31T14:32:49;19.40;99.90
5086;DHT22;4715;51.660;7.082;2022-10-31T14:35:15;19.40;99.90
5086;DHT22;4715;51.660;7.082;2022-10-31T14:38:03;19.50;99.90
5086;DHT22;4715;51.660;7.082;2022-10-31T14:40:32;19.60;99.90
5086;DHT22;4715;51.660;7.082;2022-10-31T14:45:56;19.80;99.90
5086;DHT22;4715;51.660;7.082;2022-10-31T14:48:41;19.80;99.90
5086;DHT22;4715;51.660;7.082;2022-10-31T14:51:11;19.80;99.90
5086;DHT22;4715;51.660;7.082;2022-10-31T14:53:45;19.70;99.90
5086;DHT22;4715;51.660;7.082;2022-10-31T14:56:10;19.60;99.90
5086;DHT22;4715;51.660;7.082;2022-10-31T14:58:35;19.60;99.90
5086;DHT22;4715;51.660;7.082;2022-10-31T15:00:58;19.50;99.90
5086;DHT22;4715;51.660;7.082;2022-10-31T15:03:29;19.40;99.90
5086;DHT22;4715;51.660;7.082;2022-10-31T15:05:54;19.40;99.90
5086;DHT22;4715;51.660;7.082;2022-10-31T15:08:32;19.30;99.90
5086;DHT22;4715;51.660;7.082;2022-10-31T15:10:54;19.30;99.90
5086;DHT22;4715;51.660;7.082;2022-10-31T15:13:19;19.30;99.90
5086;DHT22;4715;51.660;7.082;2022-10-31T15:15:42;19.20;99.90
5086;DHT22;4715;51.660;7.082;2022-10-31T15:18:05;19.20;99.90
5086;DHT22;4715;51.660;7.082;2022-10-31T15:20:30;19.20;99.90
5086;DHT22;4715;51.660;7.082;2022-10-31T15:22:55;19.20;99.90
5086;DHT22;4715;51.660;7.082;2022-10-31T15:25:19;19.20;99.90
5086;DHT22;4715;51.660;7.082;2022-10-31T15:27:42;19.30;99.90
5086;DHT22;4715;51.660;7.082;2022-10-31T15:30:17;19.20;99.90
5086;DHT22;4715;51.660;7.082;2022-10-31T15:32:44;19.30;99.90
5086;DHT22;4715;51.660;7.082;2022-10-31T15:35:09;19.20;99.90
5086;DHT22;4715;51.660;7.082;2022-10-31T15:37:33;19.20;99.90
5086;DHT22;4715;51.660;7.082;2022-10-31T15:39:54;19.20;99.90
5086;DHT22;4715;51.660;7.082;2022-10-31T15:42:20;19.10;99.90
5086;DHT22;4715;51.660;7.082;2022-10-31T15:44:43;19.10;99.90
5086;DHT22;4715;51.660;7.082;2022-10-31T15:47:15;19.00;99.90
5086;DHT22;4715;51.660;7.082;2022-10-31T15:49:40;19.00;99.90
5086;DHT22;4715;51.660;7.082;2022-10-31T15:52:25;18.90;99.90
5086;DHT22;4715;51.660;7.082;2022-10-31T15:54:53;18.90;99.90
5086;DHT22;4715;51.660;7.082;2022-10-31T15:57:16;18.80;99.90
5086;DHT22;4715;51.660;7.082;2022-10-31T15:59:40;18.70;99.90
5086;DHT22;4715;51.660;7.082;2022-10-31T16:02:09;18.60;99.90